Time;durP1;ratioP1;P1;durP2;ratioP2;P2;SDS_P1;SDS_P2;PMS_P1;PMS_P2;Temp;Humidity;BMP_temperature;BMP_pressure;BME280_temperature;BME280_humidity;BME280_pressure;Samples;Min_cycle;Max_cycle;Signal;HPM_P1;HPM_P2
2022/10/12 00:00:45;;;;;;;4.68;1.98;;;;;;;6.69;100.00;102350.66;6249013;28;20413;-74
2022/10/12 00:03:46;;;;;;;6.93;2.22;;;;;;;6.63;100.00;102355.06;6249129;28;20414;-74
2022/10/12 00:06:49;;;;;;;3.65;1.65;;;;;;;6.61;100.00;102352.47;6249347;28;20420;-74
2022/10/12 00:09:51;;;;;;;7.05;2.50;;;;;;;6.63;100.00;102352.44;6248963;28;20429;-74
2022/10/12 00:12:52;;;;;;;4.63;2.05;;;;;;;6.60;100.00;102348.13;6249282;28;20056;-74
2022/10/12 00:15:54;;;;;;;3.88;2.25;;;;;;;6.54;100.00;102356.91;6248955;28;20049;-74
2022/10/12 00:18:57;;;;;;;4.88;1.98;;;;;;;6.53;100.00;102349.94;6248975;28;20068;-74
2022/10/12 00:22:00;;;;;;;6.25;2.08;;;;;;;6.54;100.00;102356.03;6248958;28;20508;-74
2022/10/12 00:25:01;;;;;;;5.57;2.00;;;;;;;6.46;100.00;102361.34;6248600;28;20420;-74
2022/10/12 00:28:03;;;;;;;8.38;1.63;;;;;;;6.45;100.00;102363.94;6248807;28;20052;-74
2022/10/12 00:31:07;;;;;;;4.22;1.83;;;;;;;6.36;100.00;102370.16;6248591;28;20053;-74
2022/10/12 00:34:09;;;;;;;2.78;1.58;;;;;;;6.35;100.00;102368.41;6248412;28;20107;-74
2022/10/12 00:37:12;;;;;;;6.82;2.08;;;;;;;6.38;100.00;102364.91;6248765;28;20045;-74
2022/10/12 00:40:13;;;;;;;3.45;2.13;;;;;;;6.35;100.00;102364.03;6248216;28;20046;-74
2022/10/12 00:43:30;;;;;;;4.88;1.73;;;;;;;6.35;100.00;102368.41;6248595;28;20416;-74
2022/10/12 00:46:35;;;;;;;2.55;1.50;;;;;;;6.30;100.00;102368.44;6299036;23;20048;-74
2022/10/12 00:49:37;;;;;;;3.58;1.67;;;;;;;6.26;100.00;102369.34;6297929;28;20048;-74
2022/10/12 00:52:46;;;;;;;6.05;2.55;;;;;;;6.24;100.00;102376.34;6297610;28;20427;-75
2022/10/12 00:55:51;;;;;;;2.78;1.40;;;;;;;6.21;100.00;102368.53;6297592;28;20052;-74
2022/10/12 00:58:54;;;;;;;4.50;1.58;;;;;;;6.20;100.00;102371.16;6297512;28;20045;-74
2022/10/12 01:01:56;;;;;;;4.40;1.45;;;;;;;6.16;100.00;102366.84;6297536;28;20056;-74
2022/10/12 01:04:57;;;;;;;4.75;1.73;;;;;;;6.12;100.00;102371.22;6296453;28;20064;-74
2022/10/12 01:08:01;;;;;;;10.43;2.00;;;;;;;6.13;100.00;102370.34;6297448;28;20500;-74
2022/10/12 01:11:03;;;;;;;3.55;1.80;;;;;;;6.10;100.00;102363.44;6297075;28;20067;-75
2022/10/12 01:14:04;;;;;;;3.95;1.73;;;;;;;6.09;100.00;102366.06;6297123;28;20056;-74
2022/10/12 01:17:15;;;;;;;6.55;1.92;;;;;;;6.06;100.00;102372.16;6297253;28;20063;-74
2022/10/12 01:20:36;;;;;;;5.13;1.77;;;;;;;6.05;100.00;102369.56;6296815;28;20385;-74
2022/10/12 01:23:57;;;;;;;2.63;1.20;;;;;;;6.09;100.00;102373.88;6297137;28;20074;-74
2022/10/12 01:27:25;;;;;;;2.40;1.35;;;;;;;6.07;100.00;102378.25;6297059;28;20071;-74
2022/10/12 01:30:31;;;;;;;6.95;1.90;;;;;;;6.07;100.00;102367.78;6291756;28;20048;-74
2022/10/12 01:33:36;;;;;;;3.03;1.70;;;;;;;6.03;100.00;102366.09;6297294;28;20055;-74
2022/10/12 01:36:42;;;;;;;5.13;1.48;;;;;;;5.98;100.00;102368.75;6296534;28;20435;-74
2022/10/12 01:39:50;;;;;;;2.28;1.25;;;;;;;5.93;100.00;102365.31;6296725;28;20055;-74
2022/10/12 01:42:55;;;;;;;2.35;1.30;;;;;;;5.96;100.00;102367.03;6297095;28;20048;-74
2022/10/12 01:46:05;;;;;;;1.70;1.02;;;;;;;5.93;100.00;102360.09;6296342;28;20052;-74
2022/10/12 01:49:07;;;;;;;2.03;1.42;;;;;;;5.96;100.00;102364.44;6296742;28;20483;-74
2022/10/12 01:52:27;;;;;;;6.47;1.58;;;;;;;5.88;100.00;102369.66;6296386;28;20067;-74
2022/10/12 01:55:42;;;;;;;3.17;1.55;;;;;;;5.82;100.00;102356.69;6296454;28;20056;-74
2022/10/12 01:58:57;;;;;;;3.42;1.40;;;;;;;5.75;100.00;102360.19;6296402;28;20052;-74
2022/10/12 02:02:10;;;;;;;6.45;1.65;;;;;;;5.71;100.00;102355.88;6292953;28;20526;-74
2022/10/12 02:05:21;;;;;;;2.20;1.30;;;;;;;5.66;100.00;102347.22;6296143;28;20048;-74
2022/10/12 02:08:26;;;;;;;1.73;1.13;;;;;;;5.66;100.00;102350.69;6296371;28;20059;-74
2022/10/12 02:11:28;;;;;;;5.10;1.65;;;;;;;5.60;100.00;102356.81;6295545;28;20412;-74
2022/10/12 02:14:34;;;;;;;2.22;1.35;;;;;;;5.61;100.00;102349.88;6295962;28;20051;-75
2022/10/12 02:17:40;;;;;;;1.75;1.17;;;;;;;5.60;100.00;102351.59;6296792;28;20049;-74
2022/10/12 02:20:42;;;;;;;1.50;1.05;;;;;;;5.62;100.00;102345.50;6295787;28;20045;-74
2022/10/12 02:23:46;;;;;;;1.85;1.08;;;;;;;5.60;100.00;102332.50;6296004;28;20135;-74
2022/10/12 02:26:49;;;;;;;3.40;1.48;;;;;;;5.57;100.00;102340.31;6296126;28;20045;-74
2022/10/12 02:29:51;;;;;;;3.47;1.60;;;;;;;5.54;100.00;102337.72;6295677;28;20051;-75
2022/10/12 02:32:59;;;;;;;2.45;1.25;;;;;;;5.57;100.00;102330.75;6296185;28;20060;-74
2022/10/12 02:36:05;;;;;;;5.72;1.90;;;;;;;5.51;100.00;102325.59;6295634;28;20059;-75
2022/10/12 02:39:12;;;;;;;1.67;1.17;;;;;;;5.44;100.00;102320.41;6295971;28;20562;-74
2022/10/12 02:42:19;;;;;;;1.85;1.05;;;;;;;5.39;100.00;102320.47;6295852;28;20048;-74
2022/10/12 02:45:23;;;;;;;2.65;1.20;;;;;;;5.36;100.00;102315.28;6295468;28;20507;-74
2022/10/12 02:48:28;;;;;;;2.60;1.40;;;;;;;5.39;100.00;102311.78;6295597;28;20052;-74
2022/10/12 02:51:32;;;;;;;2.13;0.98;;;;;;;5.35;100.00;102311.78;6295926;28;20048;-74
2022/10/12 02:54:33;;;;;;;1.58;0.93;;;;;;;5.33;100.00;102315.28;6295391;28;20055;-74
2022/10/12 02:57:35;;;;;;;1.95;1.58;;;;;;;5.31;100.00;102306.59;6296188;28;20044;-74
2022/10/12 03:00:36;;;;;;;5.90;1.45;;;;;;;5.27;100.00;102310.13;6291809;28;20377;-73
2022/10/12 03:03:40;;;;;;;4.90;1.50;;;;;;;5.24;100.00;102310.13;6295214;28;20049;-74
2022/10/12 03:06:41;;;;;;;2.20;1.17;;;;;;;5.24;100.00;102303.19;6295780;28;20044;-74
2022/10/12 03:09:43;;;;;;;2.50;1.15;;;;;;;5.27;100.00;102304.91;6295362;28;20477;-74
2022/10/12 03:12:44;;;;;;;1.33;0.70;;;;;;;5.21;100.00;102302.31;6295754;28;20048;-74
2022/10/12 03:15:45;;;;;;;1.85;1.10;;;;;;;5.22;100.00;102299.72;6295059;28;20060;-74
2022/10/12 03:18:48;;;;;;;4.47;1.30;;;;;;;5.19;100.00;102293.66;6295731;28;20059;-74
2022/10/12 03:21:50;;;;;;;1.85;1.00;;;;;;;5.13;100.00;102294.53;6295169;28;20052;-74
2022/10/12 03:24:51;;;;;;;1.63;1.25;;;;;;;5.11;100.00;102295.44;6295216;28;20500;-74
2022/10/12 03:27:52;;;;;;;1.60;1.10;;;;;;;5.07;100.00;102292.84;6298581;28;20044;-74
2022/10/12 03:30:54;;;;;;;4.75;1.75;;;;;;;5.09;100.00;102290.25;6299440;28;20041;-74
2022/10/12 03:33:57;;;;;;;2.42;1.33;;;;;;;5.06;100.00;102288.53;6299544;28;20052;-74
2022/10/12 03:36:58;;;;;;;6.07;2.67;;;;;;;5.04;100.00;102289.38;6299546;28;20092;-75
2022/10/12 03:39:59;;;;;;;3.60;0.98;;;;;;;5.00;100.00;102287.69;6299374;28;20056;-74
2022/10/12 03:43:01;;;;;;;1.80;1.25;;;;;;;4.94;100.00;102285.09;6299196;28;20044;-74
2022/10/12 03:46:02;;;;;;;1.90;1.20;;;;;;;4.88;100.00;102282.53;6299055;28;20045;-74
2022/10/12 03:49:05;;;;;;;2.03;1.35;;;;;;;4.90;100.00;102281.66;6299520;28;20056;-74
2022/10/12 03:52:06;;;;;;;1.83;1.13;;;;;;;4.84;100.00;102276.47;6299200;28;20045;-74
2022/10/12 03:55:09;;;;;;;1.60;1.00;;;;;;;4.81;100.00;102279.09;6298979;28;20049;-74
2022/10/12 03:58:11;;;;;;;2.75;1.25;;;;;;;4.88;100.00;102286.00;6299118;28;20503;-74
2022/10/12 04:01:12;;;;;;;4.25;1.30;;;;;;;4.87;100.00;102280.81;6298670;28;20412;-74
2022/10/12 04:04:15;;;;;;;1.80;1.05;;;;;;;4.86;100.00;102281.66;6298696;28;20044;-74
2022/10/12 04:07:16;;;;;;;1.23;1.00;;;;;;;4.82;100.00;102284.31;6299135;28;20055;-74
2022/10/12 04:10:18;;;;;;;1.80;1.48;;;;;;;4.85;100.00;102280.81;6298553;28;20045;-74
2022/10/12 04:13:20;;;;;;;5.25;1.33;;;;;;;4.86;100.00;102281.66;6299147;28;20075;-74
2022/10/12 04:16:21;;;;;;;3.15;1.23;;;;;;;4.82;100.00;102275.63;6298314;28;20044;-74
2022/10/12 04:19:24;;;;;;;2.83;1.23;;;;;;;4.83;100.00;102279.97;6298916;28;20060;-74
2022/10/12 04:22:25;;;;;;;3.88;1.73;;;;;;;4.76;100.00;102281.72;6298372;28;20053;-74
2022/10/12 04:25:27;;;;;;;5.57;1.23;;;;;;;4.70;100.00;102280.88;6298426;28;20051;-74
2022/10/12 04:28:28;;;;;;;4.93;1.70;;;;;;;4.74;100.00;102277.41;6298554;28;20052;-74
2022/10/12 04:31:30;;;;;;;2.42;1.45;;;;;;;4.71;100.00;102282.63;6298342;28;20044;-74
2022/10/12 04:34:34;;;;;;;5.38;1.48;;;;;;;4.67;100.00;102279.16;6298092;28;20088;-74
2022/10/12 04:37:36;;;;;;;4.68;1.70;;;;;;;4.69;100.00;102271.34;6297264;28;20098;-75
2022/10/12 04:40:37;;;;;;;3.80;0.93;;;;;;;4.63;100.00;102276.56;6297794;28;20045;-74
2022/10/12 04:43:39;;;;;;;2.45;1.48;;;;;;;4.58;100.00;102282.66;6298106;28;20058;-74
2022/10/12 04:46:40;;;;;;;3.80;1.30;;;;;;;4.54;100.00;102280.97;6297429;28;20427;-74
2022/10/12 04:49:43;;;;;;;5.32;1.30;;;;;;;4.54;100.00;102278.34;6297734;28;20121;-74
2022/10/12 04:52:44;;;;;;;4.20;1.80;;;;;;;4.52;100.00;102279.22;6298059;28;20059;-74
2022/10/12 04:55:46;;;;;;;4.63;1.00;;;;;;;4.57;100.00;102280.06;6297391;28;20045;-74
2022/10/12 04:58:47;;;;;;;4.72;1.38;;;;;;;4.58;100.00;102287.00;6297716;28;20392;-74
2022/10/12 05:01:48;;;;;;;1.90;1.05;;;;;;;4.55;100.00;102280.09;6297222;28;20044;-74
2022/10/12 05:04:51;;;;;;;2.75;1.15;;;;;;;4.58;100.00;102282.66;6297499;28;20504;-74
2022/10/12 05:07:53;;;;;;;3.97;1.75;;;;;;;4.64;100.00;102279.19;6297601;28;20044;-74
2022/10/12 05:10:56;;;;;;;3.40;1.30;;;;;;;4.62;100.00;102269.63;6297036;28;20044;-74
2022/10/12 05:13:58;;;;;;;1.23;0.77;;;;;;;4.56;100.00;102271.41;6297230;28;20052;-74
2022/10/12 05:16:59;;;;;;;9.05;1.63;;;;;;;4.55;100.00;102274.88;6297107;28;20415;-74
2022/10/12 05:20:02;;;;;;;1.15;1.05;;;;;;;4.59;100.00;102270.53;6296643;28;20048;-74
2022/10/12 05:23:04;;;;;;;3.85;1.13;;;;;;;4.53;100.00;102266.19;6296951;28;20123;-74
2022/10/12 05:26:06;;;;;;;1.33;0.90;;;;;;;4.52;100.00;102266.22;6296945;28;20056;-74
2022/10/12 05:29:08;;;;;;;2.85;1.30;;;;;;;4.54;100.00;102265.34;6297067;28;20048;-74
2022/10/12 05:32:09;;;;;;;1.80;1.10;;;;;;;4.54;100.00;102273.16;6296840;28;20048;-73
2022/10/12 05:35:12;;;;;;;6.68;1.50;;;;;;;4.51;100.00;102270.56;6296572;28;20052;-74
2022/10/12 05:38:13;;;;;;;4.40;2.30;;;;;;;4.46;100.00;102263.63;6296971;28;20083;-74
2022/10/12 05:41:15;;;;;;;3.67;1.90;;;;;;;4.46;100.00;102264.50;6296580;28;20053;-74
2022/10/12 05:44:16;;;;;;;12.10;2.40;;;;;;;4.46;100.00;102268.84;6296233;28;20424;-74
2022/10/12 05:47:18;;;;;;;5.70;1.85;;;;;;;4.48;100.00;102269.69;6296612;28;20547;-74
2022/10/12 05:50:21;;;;;;;3.13;1.48;;;;;;;4.41;100.00;102263.66;6296033;28;20040;-74
2022/10/12 05:53:22;;;;;;;3.50;1.40;;;;;;;4.46;100.00;102267.09;6296711;28;20052;-74
2022/10/12 05:56:24;;;;;;;7.88;1.98;;;;;;;4.44;100.00;102260.16;6296060;28;20075;-74
2022/10/12 05:59:25;;;;;;;2.80;1.67;;;;;;;4.49;100.00;102267.06;6296747;28;20044;-74
2022/10/12 06:02:27;;;;;;;4.10;1.85;;;;;;;4.46;100.00;102259.28;6296048;28;20504;-75
2022/10/12 06:05:29;;;;;;;3.22;1.55;;;;;;;4.49;100.00;102266.22;6296209;28;20052;-74
2022/10/12 06:08:32;;;;;;;2.15;1.92;;;;;;;4.52;100.00;102264.47;6296261;28;20435;-73
2022/10/12 06:11:33;;;;;;;5.32;2.08;;;;;;;4.53;100.00;102258.38;6296277;28;20045;-74
2022/10/12 06:14:35;;;;;;;5.10;2.10;;;;;;;4.55;100.00;102255.78;6295835;28;20424;-74
2022/10/12 06:17:36;;;;;;;2.60;1.55;;;;;;;4.58;100.00;102254.00;6296216;28;20049;-75
2022/10/12 06:20:39;;;;;;;4.82;1.25;;;;;;;4.63;100.00;102253.13;6295866;28;20045;-74
2022/10/12 06:23:40;;;;;;;2.75;1.10;;;;;;;4.69;100.00;102259.19;6296187;28;20052;-74
2022/10/12 06:26:42;;;;;;;1.92;1.10;;;;;;;4.73;100.00;102257.44;6296267;28;20134;-74
2022/10/12 06:29:43;;;;;;;7.75;1.50;;;;;;;4.74;100.00;102249.63;6295912;28;20074;-74
2022/10/12 06:32:44;;;;;;;2.83;1.30;;;;;;;4.79;100.00;102247.84;6296212;28;20051;-74
2022/10/12 06:35:47;;;;;;;8.40;1.25;;;;;;;4.80;100.00;102256.53;6295521;28;20044;-74
2022/10/12 06:38:49;;;;;;;1.10;0.98;;;;;;;4.82;100.00;102260.88;6296308;28;20048;-74
2022/10/12 06:41:50;;;;;;;4.20;1.52;;;;;;;4.86;100.00;102264.34;6295617;28;20047;-74
2022/10/12 06:44:52;;;;;;;2.00;1.40;;;;;;;4.89;100.00;102260.81;6295801;28;20041;-74
2022/10/12 06:47:53;;;;;;;3.20;1.83;;;;;;;4.90;100.00;102265.16;6285383;22;20048;-74
2022/10/12 06:50:56;;;;;;;6.60;2.55;;;;;;;4.95;100.00;102264.28;6270470;28;20060;-74
2022/10/12 06:53:57;;;;;;;3.22;2.25;;;;;;;5.02;100.00;102272.91;6270731;28;20063;-74
2022/10/12 06:56:59;;;;;;;3.20;1.98;;;;;;;5.04;100.00;102268.53;6270922;28;20056;-74
2022/10/12 07:00:00;;;;;;;4.88;1.83;;;;;;;5.11;100.00;102264.19;6267043;28;20074;-75
2022/10/12 07:03:02;;;;;;;5.82;1.70;;;;;;;5.15;100.00;102260.69;6274217;28;20045;-74
2022/10/12 07:06:10;;;;;;;1.92;1.40;;;;;;;5.21;100.00;102258.88;6275254;28;20059;-74
2022/10/12 07:09:11;;;;;;;3.92;1.50;;;;;;;5.28;100.00;102262.34;6275647;28;20053;-74
2022/10/12 07:12:13;;;;;;;2.80;1.40;;;;;;;5.38;100.00;102268.34;6275370;28;20068;-74
2022/10/12 07:15:14;;;;;;;3.30;1.65;;;;;;;5.46;100.00;102269.16;6275076;28;20056;-74
2022/10/12 07:18:16;;;;;;;6.57;1.77;;;;;;;5.53;100.00;102266.47;6275549;28;20056;-75
2022/10/12 07:21:18;;;;;;;5.20;2.50;;;;;;;5.58;100.00;102263.81;6274806;28;20045;-74
2022/10/12 07:24:20;;;;;;;5.45;2.00;;;;;;;5.65;100.00;102272.47;6272359;28;20052;-75
2022/10/12 07:27:22;;;;;;;2.95;1.75;;;;;;;5.71;100.00;102273.28;6274938;28;20427;-75
2022/10/12 07:30:23;;;;;;;5.35;2.25;;;;;;;5.78;100.00;102276.72;6274559;28;20049;-75
2022/10/12 07:33:24;;;;;;;2.95;1.77;;;;;;;5.84;100.00;102276.66;6274924;28;20049;-75
2022/10/12 07:36:27;;;;;;;3.45;1.58;;;;;;;5.88;100.00;102273.13;6274478;28;20060;-75
2022/10/12 07:39:29;;;;;;;9.10;2.05;;;;;;;5.93;100.00;102273.97;6274919;28;20060;-74
2022/10/12 07:42:30;;;;;;;2.53;1.80;;;;;;;6.00;100.00;102280.03;6272980;28;20041;-74
2022/10/12 07:45:32;;;;;;;2.70;1.58;;;;;;;6.06;100.00;102279.97;6274491;28;20059;-75
2022/10/12 07:48:34;;;;;;;4.43;1.70;;;;;;;6.14;100.00;102282.50;6274369;28;20435;-74
2022/10/12 07:51:37;;;;;;;3.60;1.75;;;;;;;6.19;100.00;102276.34;6274530;28;20064;-74
2022/10/12 07:54:38;;;;;;;4.97;1.70;;;;;;;6.26;100.00;102277.13;6274244;28;20060;-75
2022/10/12 07:57:40;;;;;;;4.88;1.73;;;;;;;6.32;100.00;102274.47;6274324;28;20052;-75
2022/10/12 08:00:41;;;;;;;2.33;1.45;;;;;;;6.40;100.00;102274.34;6274169;28;20068;-75
2022/10/12 08:03:43;;;;;;;5.40;1.60;;;;;;;6.45;100.00;102275.16;6273883;28;20060;-74
2022/10/12 08:06:45;;;;;;;4.47;2.13;;;;;;;6.52;100.00;102275.09;6274377;28;20056;-74
2022/10/12 08:09:48;;;;;;;3.92;2.13;;;;;;;6.59;100.00;102268.06;6273756;28;20528;-74
2022/10/12 08:12:49;;;;;;;8.50;2.20;;;;;;;6.63;100.00;102263.63;6273875;28;20420;-74
2022/10/12 08:15:51;;;;;;;6.18;2.03;;;;;;;6.73;100.00;102279.19;6273684;28;20053;-74
2022/10/12 08:18:52;;;;;;;2.20;1.50;;;;;;;6.80;100.00;102269.50;6274119;28;20052;-75
2022/10/12 08:21:55;;;;;;;3.22;2.10;;;;;;;6.87;100.00;102276.41;6266906;28;20409;-74
2022/10/12 08:24:56;;;;;;;4.13;1.77;;;;;;;6.96;100.00;102272.81;6256341;28;20052;-75
2022/10/12 08:27:58;;;;;;;3.22;1.90;;;;;;;7.03;100.00;102271.81;6249496;28;20069;-74
2022/10/12 08:30:59;;;;;;;5.30;1.90;;;;;;;7.12;100.00;102272.53;6248572;28;20053;-74
2022/10/12 08:34:01;;;;;;;4.55;2.20;;;;;;;7.19;100.00;102267.25;6248736;28;20403;-75
2022/10/12 08:37:03;;;;;;;10.27;2.97;;;;;;;7.26;100.00;102263.63;6248645;28;20049;-74
2022/10/12 08:40:06;;;;;;;5.78;1.73;;;;;;;7.34;100.00;102262.63;6248596;28;20053;-75
2022/10/12 08:43:16;;;;;;;10.35;1.90;;;;;;;7.43;100.00;102264.25;6248239;28;20046;-74
2022/10/12 08:46:20;;;;;;;3.90;1.27;;;;;;;7.50;100.00;102252.81;6248282;28;20053;-74
2022/10/12 08:49:25;;;;;;;5.57;1.77;;;;;;;7.57;100.00;102256.16;6248467;28;20046;-74
2022/10/12 08:52:33;;;;;;;4.55;1.73;;;;;;;7.68;100.00;102256.88;6248381;28;20053;-75
2022/10/12 08:55:39;;;;;;;6.13;1.60;;;;;;;7.78;100.00;102252.34;6248072;28;20053;-75
2022/10/12 08:58:41;;;;;;;1.73;1.13;;;;;;;7.89;100.00;102247.75;6248278;28;20525;-75
2022/10/12 09:01:59;;;;;;;8.35;1.80;;;;;;;8.01;100.00;102251.94;6247949;28;20056;-75
2022/10/12 09:05:03;;;;;;;5.55;1.58;;;;;;;8.11;100.00;102245.63;6247946;28;20056;-75
2022/10/12 09:08:12;;;;;;;5.05;2.00;;;;;;;8.24;100.00;102243.63;6253818;28;20146;-75
2022/10/12 09:11:26;;;;;;;1.27;0.90;;;;;;;8.36;100.00;102236.44;6268083;28;20939;-75
2022/10/12 09:14:31;;;;;;;7.93;3.17;;;;;;;8.48;100.00;102231.81;6266373;28;20060;-75
2022/10/12 09:17:40;;;;;;;17.92;7.90;;;;;;;8.57;100.00;102236.88;6269472;28;20507;-75
2022/10/12 09:20:46;;;;;;;9.93;5.05;;;;;;;8.66;100.00;102236.66;6267724;28;20045;-75
2022/10/12 09:23:49;;;;;;;2.40;1.45;;;;;;;8.76;100.00;102235.56;6265344;28;20420;-74
2022/10/12 09:26:55;;;;;;;1.58;1.23;;;;;;;8.94;100.00;102239.53;6272256;28;20416;-75
2022/10/12 09:30:00;;;;;;;7.47;1.65;;;;;;;9.04;100.00;102240.22;6272098;28;20425;-76
2022/10/12 09:33:18;;;;;;;8.23;1.10;;;;;;;9.13;100.00;102240.00;6250787;28;20053;-75
2022/10/12 09:36:22;;;;;;;3.37;0.90;;;;;;;9.17;100.00;102231.16;6254001;28;20060;-74
2022/10/12 09:39:30;;;;;;;5.28;1.20;;;;;;;9.28;100.00;102228.28;6259474;28;20056;-75
2022/10/12 09:42:32;;;;;;;4.22;0.93;;;;;;;9.37;100.00;102231.53;6257468;28;20045;-75
2022/10/12 09:45:35;;;;;;;7.55;1.17;;;;;;;9.47;100.00;102233.94;6257666;28;20045;-76
2022/10/12 09:48:36;;;;;;;1.13;0.88;;;;;;;9.59;100.00;102236.28;6259989;28;20041;-74
2022/10/12 09:51:37;;;;;;;4.63;0.70;;;;;;;9.70;100.00;102233.34;6256975;28;20045;-75
2022/10/12 09:54:48;;;;;;;2.58;1.45;;;;;;;9.79;100.00;102230.50;6258363;28;20045;-75
2022/10/12 09:57:54;;;;;;;3.13;1.10;;;;;;;9.90;100.00;102224.06;6257012;28;20049;-75
2022/10/12 10:01:15;;;;;;;8.10;1.08;;;;;;;10.03;100.00;102221.94;6257276;28;20052;-76
2022/10/12 10:04:22;;;;;;;4.20;1.25;;;;;;;10.15;100.00;102220.75;6255886;28;20059;-75
2022/10/12 10:07:28;;;;;;;1.05;0.73;;;;;;;10.28;100.00;102214.28;6259186;28;20698;-75
2022/10/12 10:10:31;;;;;;;5.82;2.53;;;;;;;10.32;100.00;102213.31;6256049;28;20723;-75
2022/10/12 10:13:37;;;;;;;5.70;1.67;;;;;;;10.38;100.00;102214.88;6258440;28;20052;-75
2022/10/12 10:16:47;;;;;;;2.75;1.67;;;;;;;10.44;100.00;102213.84;6257027;28;20445;-75
2022/10/12 10:19:50;;;;;;;4.88;1.38;;;;;;;10.50;100.00;102209.28;6258456;28;20409;-76
2022/10/12 10:22:51;;;;;;;2.67;1.20;;;;;;;10.60;100.00;102213.34;6257598;28;20044;-76
2022/10/12 10:25:58;;;;;;;7.55;1.17;;;;;;;10.79;100.00;102211.00;6265834;28;20053;-75
2022/10/12 10:29:15;;;;;;;6.43;1.55;;;;;;;10.90;100.00;102200.16;6258750;28;20045;-75
2022/10/12 10:32:25;;;;;;;4.63;1.13;;;;;;;11.09;100.00;102198.69;6258456;28;20058;-76
2022/10/12 10:35:27;;;;;;;1.75;0.98;;;;;;;11.21;100.00;102209.72;6252043;28;20068;-76
2022/10/12 10:38:32;;;;;;;3.53;0.90;;;;;;;11.25;100.00;102201.66;6255672;28;20048;-76
2022/10/12 10:41:37;;;;;;;5.60;1.25;;;;;;;11.31;100.00;102200.59;6261369;28;20064;-76
2022/10/12 10:44:40;;;;;;;2.10;1.10;;;;;;;11.36;100.00;102193.44;6254562;28;20073;-75
2022/10/12 10:47:45;;;;;;;1.58;0.85;;;;;;;11.41;100.00;102189.72;6275907;28;20084;-75
2022/10/12 10:50:52;;;;;;;0.90;0.70;;;;;;;11.51;100.00;102190.28;6275685;28;20045;-75
2022/10/12 10:53:54;;;;;;;2.55;1.00;;;;;;;11.63;97.89;102176.69;6275644;28;20049;-75
2022/10/12 10:57:01;;;;;;;0.95;0.70;;;;;;;11.76;97.41;102170.97;6275760;28;20048;-76
2022/10/12 11:00:06;;;;;;;3.95;1.50;;;;;;;11.92;96.96;102165.16;6275582;28;20048;-76
2022/10/12 11:03:14;;;;;;;4.28;1.10;;;;;;;12.05;95.35;102162.94;6272996;28;20052;-76
2022/10/12 11:06:24;;;;;;;7.72;0.98;;;;;;;12.17;94.76;102161.59;6275018;28;20398;-77
2022/10/12 11:09:29;;;;;;;4.32;0.93;;;;;;;12.44;92.40;102157.94;6275774;28;20056;-76
2022/10/12 11:12:37;;;;;;;3.75;0.90;;;;;;;12.69;89.62;102146.44;6275482;28;20053;-76
2022/10/12 11:15:44;;;;;;;3.28;0.98;;;;;;;12.82;88.83;102141.53;6275175;28;20048;-76
2022/10/12 11:18:50;;;;;;;3.83;0.80;;;;;;;13.01;84.04;102137.22;6268173;28;20056;-75
2022/10/12 11:21:53;;;;;;;2.55;0.80;;;;;;;13.23;83.28;102150.41;6274907;28;20056;-75
2022/10/12 11:25:03;;;;;;;1.73;0.95;;;;;;;13.36;82.39;102134.91;6274907;28;20044;-75
2022/10/12 11:28:07;;;;;;;6.80;1.00;;;;;;;13.58;82.33;102135.69;6275196;28;20524;-75
2022/10/12 11:31:17;;;;;;;5.07;0.90;;;;;;;13.73;80.80;102131.53;6274933;28;20096;-74
2022/10/12 11:34:22;;;;;;;1.65;0.80;;;;;;;13.88;80.88;102124.69;6274641;28;20079;-75
2022/10/12 11:37:30;;;;;;;7.00;0.93;;;;;;;14.08;79.66;102132.59;6274783;28;20417;-76
2022/10/12 11:40:36;;;;;;;2.92;1.00;;;;;;;14.33;77.45;102131.44;6274685;28;20627;-75
2022/10/12 11:43:44;;;;;;;2.92;1.05;;;;;;;14.52;77.63;102124.38;6274946;28;20052;-76
2022/10/12 11:46:52;;;;;;;4.05;0.80;;;;;;;14.70;77.43;102133.22;6273880;28;20054;-75
2022/10/12 11:49:58;;;;;;;2.53;0.65;;;;;;;14.80;74.24;102120.38;6274678;28;20053;-76
2022/10/12 11:53:02;;;;;;;2.13;0.95;;;;;;;14.92;76.88;102106.56;6274374;28;20075;-76
2022/10/12 11:56:10;;;;;;;2.28;1.02;;;;;;;15.07;76.12;102103.13;6274158;28;20055;-77
2022/10/12 11:59:19;;;;;;;7.07;0.93;;;;;;;15.17;73.72;102092.91;6274250;28;20051;-77
2022/10/12 12:02:26;;;;;;;1.10;0.70;;;;;;;15.28;75.13;102093.25;6273734;28;20045;-77
2022/10/12 12:05:31;;;;;;;8.00;0.60;;;;;;;15.39;73.70;102090.03;6273793;28;20063;-76
2022/10/12 12:08:57;;;;;;;3.25;1.40;;;;;;;15.53;72.46;102091.94;6274178;28;20045;-76
2022/10/12 12:12:20;;;;;;;1.73;0.98;;;;;;;15.59;69.76;102075.75;6273818;28;20045;-76
2022/10/12 12:15:23;;;;;;;3.42;0.60;;;;;;;15.66;71.24;102069.22;6273531;28;20056;-75
2022/10/12 12:18:27;;;;;;;1.17;0.60;;;;;;;15.71;71.98;102065.41;6268032;28;20049;-76
2022/10/12 12:21:29;;;;;;;6.07;1.00;;;;;;;15.81;69.53;102073.69;6248593;28;20056;-75
2022/10/12 12:24:30;;;;;;;4.22;0.63;;;;;;;15.95;69.50;102065.00;6248733;28;20057;-76
2022/10/12 12:27:38;;;;;;;2.30;0.73;;;;;;;16.09;71.53;102072.19;6249046;28;20053;-75
2022/10/12 12:30:41;;;;;;;0.82;0.45;;;;;;;16.20;68.55;102056.53;6248429;28;20416;-76
2022/10/12 12:33:45;;;;;;;3.28;0.98;;;;;;;16.26;66.34;102056.19;6248718;28;20052;-77
2022/10/12 12:36:49;;;;;;;3.63;0.90;;;;;;;16.34;67.22;102059.25;6248984;28;20057;-76
2022/10/12 12:39:53;;;;;;;3.13;0.70;;;;;;;16.44;64.38;102051.63;6248596;28;20049;-76
2022/10/12 12:43:19;;;;;;;2.78;0.80;;;;;;;16.52;64.90;102054.69;6248672;28;20042;-76
2022/10/12 12:46:24;;;;;;;5.68;1.50;;;;;;;16.61;66.04;102048.84;6248242;28;20516;-75
2022/10/12 12:49:28;;;;;;;3.17;0.60;;;;;;;16.71;66.95;102057.13;6248378;28;20528;-75
2022/10/12 12:52:34;;;;;;;1.98;0.60;;;;;;;16.77;65.79;102053.31;6248132;28;20072;-75
2022/10/12 12:55:47;;;;;;;3.03;1.13;;;;;;;16.86;65.78;102035.03;6258021;28;20056;-75
2022/10/12 12:59:01;;;;;;;3.05;0.80;;;;;;;16.96;65.37;102038.00;6264918;28;20045;-73
2022/10/12 13:02:30;;;;;;;4.32;0.77;;;;;;;17.11;65.75;102037.06;6272410;28;20036;-72
2022/10/12 13:06:19;;;;;;;2.00;0.40;;;;;;;17.25;64.16;102021.16;6272358;28;20617;-75
2022/10/12 13:09:36;;;;;;;1.48;0.57;;;;;;;17.37;62.44;102037.31;6247984;28;20057;-75
2022/10/12 13:13:00;;;;;;;4.15;0.60;;;;;;;17.53;61.80;102030.06;6247853;28;20045;-75
2022/10/12 13:16:13;;;;;;;2.40;0.70;;;;;;;17.53;61.19;102030.06;6247176;28;20049;-75
2022/10/12 13:19:16;;;;;;;3.35;0.60;;;;;;;17.60;61.00;102022.59;6247945;28;20060;-75
2022/10/12 13:22:25;;;;;;;1.15;0.60;;;;;;;17.61;61.00;102027.81;6252444;28;20412;-75
2022/10/12 13:25:32;;;;;;;2.80;0.70;;;;;;;17.58;61.70;102021.84;6272037;28;20053;-72
2022/10/12 13:28:37;;;;;;;3.97;1.52;;;;;;;17.55;62.74;102012.25;6272325;28;20061;-75
2022/10/12 13:31:44;;;;;;;0.40;0.40;;;;;;;17.65;62.32;102001.88;6271782;28;20416;-75
2022/10/12 13:34:49;;;;;;;3.17;0.77;;;;;;;17.78;61.23;101989.56;6271824;28;20063;-76
2022/10/12 13:38:00;;;;;;;2.35;0.70;;;;;;;17.79;62.95;101993.06;6271076;28;20044;-76
2022/10/12 13:41:07;;;;;;;1.90;0.88;;;;;;;17.90;60.50;101999.41;6271456;28;20048;-75
2022/10/12 13:44:21;;;;;;;2.25;0.80;;;;;;;17.99;59.60;101990.84;6271209;28;20045;-76
2022/10/12 13:47:25;;;;;;;2.95;0.90;;;;;;;17.90;57.98;101993.25;6271689;28;20049;-77
2022/10/12 13:50:28;;;;;;;2.92;1.00;;;;;;;17.81;56.80;101978.75;6271760;28;20062;-75
2022/10/12 13:53:36;;;;;;;1.92;0.50;;;;;;;17.67;58.00;101982.25;6271543;28;20102;-76
2022/10/12 13:56:38;;;;;;;2.88;0.75;;;;;;;17.66;59.00;101975.19;6270121;28;20524;-76
2022/10/12 13:59:40;;;;;;;5.68;0.60;;;;;;;17.47;59.05;101977.31;6262848;28;20053;-76
2022/10/12 14:02:42;;;;;;;1.75;0.73;;;;;;;17.44;58.07;101980.16;6271395;28;20049;-76
2022/10/12 14:05:45;;;;;;;2.92;1.00;;;;;;;17.30;58.88;101970.38;6270720;28;20041;-76
2022/10/12 14:08:47;;;;;;;2.28;0.60;;;;;;;17.14;60.69;101972.31;6269815;28;20070;-76
2022/10/12 14:11:51;;;;;;;3.47;0.90;;;;;;;16.96;60.98;101968.97;6270485;28;20044;-74
2022/10/12 14:14:53;;;;;;;1.83;1.00;;;;;;;16.81;60.65;101959.28;6270748;28;20049;-73
2022/10/12 14:17:55;;;;;;;2.17;1.15;;;;;;;16.76;61.34;101962.22;6271361;28;20068;-74